createdAt,value
2022-12-19T00:00:39.909Z,79.05
2022-12-19T00:03:10.626Z,73.75
2022-12-19T00:05:41.848Z,75.40
2022-12-19T00:08:18.282Z,84.88
2022-12-19T00:10:57.508Z,82.32
2022-12-19T00:13:27.691Z,80.95
2022-12-19T00:16:04.799Z,89.97
2022-12-19T00:18:37.934Z,82.30
2022-12-19T00:21:09.125Z,79.28
2022-12-19T00:23:38.326Z,80.20
2022-12-19T00:26:19.567Z,82.97
2022-12-19T00:28:51.560Z,86.13
2022-12-19T00:31:33.699Z,77.85
2022-12-19T00:34:07.128Z,90.05
2022-12-19T00:36:37.109Z,81.85
2022-12-19T00:39:13.640Z,86.60
2022-12-19T00:41:43.583Z,81.72
2022-12-19T00:44:16.069Z,84.43
2022-12-19T00:46:52.393Z,81.25
2022-12-19T00:49:23.631Z,76.95
2022-12-19T00:51:53.207Z,78.43
2022-12-19T00:54:22.689Z,80.57
2022-12-19T00:56:53.255Z,73.22
2022-12-19T00:59:26.489Z,79.85
2022-12-19T01:01:56.459Z,74.22
2022-12-19T01:04:29.190Z,81.50
2022-12-19T01:07:06.751Z,70.55
2022-12-19T01:09:41.562Z,79.72
2022-12-19T01:12:44.984Z,73.38
2022-12-19T01:15:17.660Z,71.60
2022-12-19T01:17:48.771Z,66.93
2022-12-19T01:20:29.156Z,71.03
2022-12-19T01:23:00.828Z,74.55
2022-12-19T01:25:30.237Z,71.40
2022-12-19T01:27:59.792Z,71.05
2022-12-19T01:30:31.643Z,63.03
2022-12-19T01:33:02.178Z,70.28
2022-12-19T01:35:32.831Z,66.53
2022-12-19T01:38:07.816Z,69.78
2022-12-19T01:40:37.652Z,63.95
2022-12-19T01:43:08.236Z,63.97
2022-12-19T01:45:45.321Z,64.97
2022-12-19T01:48:22.856Z,67.88
2022-12-19T01:51:02.065Z,65.65
2022-12-19T01:53:48.692Z,71.85
2022-12-19T01:56:20.412Z,73.78
2022-12-19T01:58:56.156Z,72.05
2022-12-19T02:01:35.902Z,70.00
2022-12-19T02:04:09.459Z,69.88
2022-12-19T02:06:42.728Z,76.43
2022-12-19T02:09:12.847Z,77.32
2022-12-19T02:11:41.749Z,86.15
2022-12-19T02:14:10.835Z,80.55
2022-12-19T02:16:53.757Z,79.75
2022-12-19T02:20:30.195Z,83.15
2022-12-19T02:23:25.299Z,83.88
2022-12-19T02:26:14.736Z,87.00
2022-12-19T02:29:06.740Z,83.15
2022-12-19T02:31:44.805Z,81.07
2022-12-19T02:34:26.096Z,92.35
2022-12-19T02:37:03.547Z,94.40
2022-12-19T02:39:42.551Z,97.72
2022-12-19T02:42:16.847Z,85.15
2022-12-19T02:44:51.478Z,100.60
2022-12-19T02:47:24.558Z,97.35
2022-12-19T02:49:53.478Z,90.60
2022-12-19T02:52:48.405Z,85.47
2022-12-19T02:55:23.360Z,89.13
2022-12-19T02:58:30.891Z,86.47
2022-12-19T03:01:09.748Z,86.82
2022-12-19T03:03:55.949Z,85.65
2022-12-19T03:06:35.876Z,84.63
2022-12-19T03:09:17.664Z,85.50
2022-12-19T03:11:52.064Z,89.28
2022-12-19T03:14:25.034Z,82.72
2022-12-19T03:16:56.396Z,82.38
2022-12-19T03:19:28.205Z,78.15
2022-12-19T03:21:59.044Z,76.47
2022-12-19T03:24:27.690Z,90.55
2022-12-19T03:27:02.646Z,79.53
2022-12-19T03:29:37.939Z,79.07
2022-12-19T03:32:11.866Z,73.43
2022-12-19T03:34:48.309Z,75.00
2022-12-19T03:37:22.252Z,73.43
2022-12-19T03:39:56.162Z,66.32
2022-12-19T03:42:46.139Z,74.68
2022-12-19T03:45:20.020Z,70.57
2022-12-19T03:47:53.427Z,76.50
2022-12-19T03:50:29.982Z,73.10
2022-12-19T03:53:12.865Z,69.13
2022-12-19T03:55:49.368Z,65.03
2022-12-19T03:58:25.965Z,74.97
2022-12-19T04:00:55.958Z,71.30
2022-12-19T04:03:25.990Z,66.68
2022-12-19T04:05:59.141Z,62.17
2022-12-19T04:08:29.525Z,66.00
2022-12-19T04:11:11.193Z,58.40
2022-12-19T04:13:46.490Z,63.95
2022-12-19T04:16:25.156Z,57.00
2022-12-19T04:19:00.189Z,54.80
2022-12-19T04:21:38.278Z,55.20
2022-12-19T04:24:13.944Z,50.10
2022-12-19T04:26:46.419Z,46.38
2022-12-19T04:29:17.140Z,53.78
2022-12-19T04:31:49.168Z,47.13
2022-12-19T04:34:21.996Z,46.95
2022-12-19T04:36:52.870Z,44.30
2022-12-19T04:39:21.421Z,48.83
2022-12-19T04:41:51.062Z,40.53
2022-12-19T04:44:20.308Z,36.75
2022-12-19T04:46:48.989Z,34.22
2022-12-19T04:49:19.717Z,33.85
2022-12-19T04:51:48.607Z,37.30
2022-12-19T04:54:19.230Z,29.95
2022-12-19T04:56:47.549Z,31.00
2022-12-19T04:59:18.369Z,31.02
2022-12-19T05:01:47.552Z,34.10
2022-12-19T05:04:17.284Z,31.13
2022-12-19T05:06:45.761Z,30.00
2022-12-19T05:09:14.941Z,33.88
2022-12-19T05:11:45.143Z,31.98
2022-12-19T05:14:15.648Z,35.92
2022-12-19T05:16:45.751Z,31.45
2022-12-19T05:19:16.791Z,33.42
2022-12-19T05:21:45.551Z,33.75
2022-12-19T05:24:14.499Z,29.40
2022-12-19T05:26:44.568Z,30.10
2022-12-19T05:29:13.542Z,31.40
2022-12-19T05:31:45.445Z,34.55
2022-12-19T05:34:15.905Z,27.00
2022-12-19T05:36:44.867Z,24.27
2022-12-19T05:39:14.332Z,23.70
2022-12-19T05:41:48.696Z,24.80
2022-12-19T05:44:18.329Z,23.73
2022-12-19T05:46:47.420Z,20.00
2022-12-19T05:49:16.437Z,22.42
2022-12-19T05:51:45.145Z,22.00
2022-12-19T05:54:14.617Z,24.00
2022-12-19T05:56:48.187Z,22.20
2022-12-19T05:59:17.294Z,24.17
2022-12-19T06:01:45.997Z,24.75
2022-12-19T06:04:15.200Z,24.33
2022-12-19T06:06:44.092Z,26.27
2022-12-19T06:09:14.172Z,23.92
2022-12-19T06:11:46.442Z,24.10
2022-12-19T06:14:16.074Z,26.35
2022-12-19T06:16:45.099Z,29.10
2022-12-19T06:19:14.480Z,27.35
2022-12-19T06:21:48.200Z,30.73
2022-12-19T06:24:18.055Z,32.65
2022-12-19T06:26:49.833Z,29.88
2022-12-19T06:29:20.179Z,30.35
2022-12-19T06:35:03.557Z,28.25
2022-12-19T06:37:32.676Z,31.42
2022-12-19T06:40:01.830Z,30.58
2022-12-19T06:42:31.484Z,27.67
2022-12-19T06:45:00.271Z,30.63
2022-12-19T06:47:29.084Z,27.85
2022-12-19T06:50:00.363Z,26.75
2022-12-19T06:52:29.215Z,31.88
2022-12-19T06:54:58.678Z,31.85
2022-12-19T06:57:27.935Z,27.25
2022-12-19T07:00:00.170Z,30.25
2022-12-19T07:02:33.240Z,30.70
2022-12-19T07:05:05.682Z,25.35
2022-12-19T07:07:35.564Z,26.77
2022-12-19T07:10:08.373Z,30.10
2022-12-19T07:12:37.725Z,30.35
2022-12-19T07:15:10.409Z,31.35
2022-12-19T07:17:40.335Z,29.55
2022-12-19T07:20:10.640Z,31.40
2022-12-19T07:22:40.307Z,31.92
2022-12-19T07:25:12.515Z,31.50
2022-12-19T07:27:41.738Z,32.67
2022-12-19T07:30:14.543Z,34.38
2022-12-19T07:32:43.344Z,36.67
2022-12-19T07:35:12.796Z,32.38
2022-12-19T07:37:41.913Z,42.40
2022-12-19T07:40:12.749Z,38.78
2022-12-19T07:42:42.215Z,43.30
2022-12-19T07:45:15.410Z,44.95
2022-12-19T07:47:43.669Z,47.50
2022-12-19T07:50:13.829Z,45.33
2022-12-19T07:52:49.472Z,51.22
2022-12-19T07:55:25.465Z,50.33
2022-12-19T07:58:04.898Z,46.53
2022-12-19T08:00:37.904Z,50.65
2022-12-19T08:03:07.217Z,49.30
2022-12-19T08:05:40.748Z,50.58
2022-12-19T08:08:10.972Z,47.97
2022-12-19T08:10:41.488Z,44.58
2022-12-19T08:13:10.328Z,50.30
2022-12-19T08:15:45.366Z,48.00
2022-12-19T08:18:15.399Z,44.38
2022-12-19T08:20:47.892Z,41.67
2022-12-19T08:23:16.832Z,38.33
2022-12-19T08:25:45.376Z,44.53
2022-12-19T08:28:15.595Z,41.47
2022-12-19T08:30:46.323Z,41.15
2022-12-19T08:33:15.341Z,36.95
2022-12-19T08:35:44.807Z,36.72
2022-12-19T08:38:17.177Z,38.78
2022-12-19T08:40:47.653Z,40.50
2022-12-19T08:43:17.320Z,41.50
2022-12-19T08:45:52.628Z,39.78
2022-12-19T08:48:21.970Z,41.70
2022-12-19T08:50:58.839Z,41.63
2022-12-19T08:53:29.578Z,32.78
2022-12-19T08:56:00.034Z,35.00
2022-12-19T08:58:32.072Z,35.13
2022-12-19T09:01:09.093Z,35.92
2022-12-19T09:04:24.367Z,35.65
2022-12-19T09:06:27.725Z,35.42
2022-12-19T09:09:00.225Z,35.28
2022-12-19T09:11:29.485Z,31.52
2022-12-19T09:13:59.429Z,35.28
2022-12-19T09:16:30.933Z,30.65
2022-12-19T09:18:59.728Z,34.47
2022-12-19T09:21:31.924Z,28.70
2022-12-19T09:24:07.633Z,31.55
2022-12-19T09:26:38.888Z,31.42
2022-12-19T09:29:19.414Z,32.53
2022-12-19T09:31:56.183Z,31.60
2022-12-19T09:34:33.234Z,27.85
2022-12-19T09:37:08.882Z,23.48
2022-12-19T09:39:39.082Z,30.73
2022-12-19T09:42:48.026Z,24.55
2022-12-19T09:46:09.763Z,24.98
2022-12-19T09:48:40.604Z,27.92
2022-12-19T09:51:32.757Z,22.00
2022-12-19T09:54:17.842Z,26.55
2022-12-19T09:56:50.590Z,23.35
2022-12-19T09:59:41.616Z,24.90
2022-12-19T10:02:35.640Z,27.35
2022-12-19T10:06:25.530Z,27.27
2022-12-19T10:08:21.039Z,23.33
2022-12-19T10:12:46.511Z,21.65
2022-12-19T10:14:35.365Z,28.75
2022-12-19T10:17:25.345Z,22.23
2022-12-19T10:20:21.971Z,23.20
2022-12-19T10:23:06.646Z,22.73
2022-12-19T10:25:53.426Z,22.73
2022-12-19T10:28:59.505Z,25.33
2022-12-19T10:31:35.798Z,21.70
2022-12-19T10:37:27.561Z,21.67
2022-12-19T10:40:27.356Z,19.92
2022-12-19T10:43:10.812Z,20.83
2022-12-19T10:45:47.429Z,18.85
2022-12-19T10:48:31.043Z,18.05
2022-12-19T10:51:06.368Z,18.48
2022-12-19T10:56:22.903Z,18.65
2022-12-19T10:59:07.083Z,15.15
2022-12-19T11:01:41.131Z,18.08
2022-12-19T11:04:31.828Z,16.52
2022-12-19T11:07:20.631Z,15.77
2022-12-19T11:10:41.254Z,16.30
2022-12-19T11:16:18.261Z,14.32
2022-12-19T11:19:59.211Z,17.90
2022-12-19T11:29:19.046Z,17.35
2022-12-19T11:29:45.633Z,13.88
2022-12-19T11:30:06.582Z,14.07
2022-12-19T11:30:46.946Z,15.00
2022-12-19T11:33:28.570Z,18.10
2022-12-19T11:36:01.061Z,13.32
2022-12-19T11:38:49.757Z,12.55
2022-12-19T11:41:29.275Z,15.02
2022-12-19T11:47:01.962Z,14.45
2022-12-19T11:49:41.586Z,15.00
2022-12-19T11:55:25.545Z,15.60
2022-12-19T11:57:57.674Z,15.70
2022-12-19T12:00:28.948Z,14.75
2022-12-19T12:03:23.931Z,14.35
2022-12-19T12:05:57.104Z,13.43
2022-12-19T12:14:14.596Z,14.23
2022-12-19T12:22:09.799Z,15.07
2022-12-19T12:28:55.307Z,11.98
2022-12-19T12:31:07.036Z,16.85
2022-12-19T12:31:18.798Z,14.65
2022-12-19T12:31:41.329Z,17.92
2022-12-19T12:31:58.819Z,21.65
2022-12-19T12:32:02.055Z,14.77
2022-12-19T12:35:32.825Z,15.88
2022-12-19T12:38:13.580Z,16.08
2022-12-19T12:40:29.168Z,13.43
2022-12-19T12:43:11.266Z,15.40
2022-12-19T12:45:45.428Z,18.42
2022-12-19T12:48:27.477Z,18.52
2022-12-19T12:51:02.856Z,15.80
2022-12-19T12:53:36.764Z,18.83
2022-12-19T12:56:09.753Z,15.00
2022-12-19T12:59:05.988Z,16.55
2022-12-19T13:01:38.613Z,16.60
2022-12-19T13:04:22.376Z,15.90
2022-12-19T13:07:29.702Z,15.77
2022-12-19T13:10:28.598Z,16.63
2022-12-19T13:13:02.070Z,12.38
2022-12-19T13:15:46.012Z,12.48
2022-12-19T13:18:38.177Z,12.23
2022-12-19T13:21:10.992Z,14.77
2022-12-19T13:24:16.137Z,10.60
2022-12-19T13:26:50.183Z,12.40
2022-12-19T13:29:34.829Z,12.23
2022-12-19T13:32:16.878Z,14.98
2022-12-19T13:36:01.679Z,11.80
2022-12-19T13:39:57.246Z,13.20
2022-12-19T13:41:02.452Z,13.38
2022-12-19T13:43:48.563Z,16.52
2022-12-19T13:46:35.564Z,15.13
2022-12-19T13:49:09.501Z,11.45
2022-12-19T13:51:51.126Z,10.38
2022-12-19T13:54:24.547Z,11.18
2022-12-19T13:56:56.480Z,16.40
2022-12-19T13:59:30.227Z,12.50
2022-12-19T14:02:12.273Z,10.48
2022-12-19T14:04:44.509Z,12.27
2022-12-19T14:11:32.204Z,12.63
2022-12-19T14:14:15.022Z,9.77
2022-12-19T14:16:48.036Z,9.98
2022-12-19T14:19:26.596Z,19.77
2022-12-19T14:26:52.226Z,11.02
2022-12-19T14:28:26.301Z,9.57
2022-12-19T14:31:15.415Z,10.70
2022-12-19T14:34:35.814Z,10.65
2022-12-19T14:37:04.354Z,11.25
2022-12-19T14:58:55.312Z,13.20
2022-12-19T15:01:09.805Z,9.63
2022-12-19T15:03:41.237Z,11.00
2022-12-19T15:11:00.712Z,11.43
2022-12-19T15:14:47.269Z,10.27
2022-12-19T15:15:57.741Z,10.80
2022-12-19T15:18:43.212Z,12.20
2022-12-19T15:24:19.051Z,13.27
2022-12-19T15:41:46.259Z,12.05
2022-12-19T15:44:27.422Z,13.85
2022-12-19T15:50:21.320Z,16.52
2022-12-19T15:52:50.541Z,17.10
2022-12-19T15:55:21.638Z,16.80
2022-12-19T15:57:56.040Z,13.60
2022-12-19T16:00:29.164Z,10.40
2022-12-19T16:05:51.815Z,10.70
2022-12-19T16:08:25.435Z,13.35
2022-12-19T16:11:01.888Z,13.82
2022-12-19T16:13:40.511Z,11.90
2022-12-19T16:16:15.773Z,12.45
2022-12-19T16:18:46.214Z,17.95
2022-12-19T16:21:33.177Z,10.60
2022-12-19T16:24:04.130Z,14.00
2022-12-19T16:26:36.117Z,10.57
2022-12-19T16:29:07.737Z,470.58
2022-12-19T16:31:36.846Z,23.50
2022-12-19T16:34:16.742Z,12.77
2022-12-19T16:36:47.313Z,10.48
2022-12-19T16:39:19.372Z,14.27
2022-12-19T16:41:49.371Z,14.52
2022-12-19T16:44:23.280Z,12.68
2022-12-19T16:46:53.765Z,11.90
2022-12-19T16:49:24.431Z,13.65
2022-12-19T16:51:56.525Z,10.23
2022-12-19T16:54:28.502Z,10.65
2022-12-19T16:56:57.372Z,14.60
2022-12-19T16:59:32.166Z,9.73
2022-12-19T17:02:02.279Z,10.93
2022-12-19T17:04:31.698Z,8.48
2022-12-19T17:07:01.924Z,9.85
2022-12-19T17:09:31.103Z,11.75
2022-12-19T17:12:02.647Z,16.50
2022-12-19T17:14:33.913Z,11.45
2022-12-19T17:17:05.514Z,12.73
2022-12-19T17:19:42.163Z,11.57
2022-12-19T17:22:15.787Z,12.45
2022-12-19T17:24:48.722Z,12.63
2022-12-19T17:27:19.390Z,9.27
2022-12-19T17:29:49.002Z,10.52
2022-12-19T17:32:23.709Z,10.50
2022-12-19T17:37:24.961Z,10.40
2022-12-19T17:39:56.023Z,10.68
2022-12-19T17:42:37.015Z,9.30
2022-12-19T17:45:09.455Z,18.60
2022-12-19T17:47:41.486Z,13.18
2022-12-19T17:50:32.745Z,11.90
2022-12-19T17:53:04.494Z,13.23
2022-12-19T17:55:34.685Z,13.18
2022-12-19T17:58:03.984Z,10.55
2022-12-19T18:00:35.429Z,15.10
2022-12-19T18:03:21.742Z,9.80
2022-12-19T18:05:53.230Z,12.95
2022-12-19T18:08:28.361Z,10.45
2022-12-19T18:10:59.645Z,11.98
2022-12-19T18:13:31.733Z,13.27
2022-12-19T18:16:05.369Z,11.55
2022-12-19T18:18:38.312Z,9.02
2022-12-19T18:21:08.240Z,9.02
2022-12-19T18:23:39.070Z,10.60
2022-12-19T18:26:12.384Z,12.15
2022-12-19T18:28:42.094Z,10.88
2022-12-19T18:31:17.926Z,10.45
2022-12-19T18:33:49.180Z,12.20
2022-12-19T18:36:22.718Z,12.50
2022-12-19T18:38:56.087Z,14.00
2022-12-19T18:41:26.158Z,12.95
2022-12-19T18:43:55.476Z,10.45
2022-12-19T18:46:30.352Z,12.95
2022-12-19T18:49:01.582Z,11.23
2022-12-19T18:51:31.452Z,9.18
2022-12-19T18:54:01.992Z,16.48
2022-12-19T18:56:30.557Z,12.45
2022-12-19T18:59:04.515Z,18.20
2022-12-19T19:01:33.707Z,13.23
2022-12-19T19:04:03.549Z,11.00
2022-12-19T19:06:37.836Z,8.77
2022-12-19T19:09:17.532Z,9.80
2022-12-19T19:11:46.389Z,14.32
2022-12-19T19:14:15.623Z,10.35
2022-12-19T19:16:46.884Z,10.20
2022-12-19T19:19:19.813Z,11.18
2022-12-19T19:21:48.860Z,12.85
2022-12-19T19:24:23.840Z,9.77
2022-12-19T19:26:52.491Z,9.07
2022-12-19T19:29:21.388Z,15.38
2022-12-19T19:31:54.170Z,13.98
2022-12-19T19:34:29.556Z,12.20
2022-12-19T19:39:35.692Z,9.18
2022-12-19T19:42:05.244Z,9.20
2022-12-19T19:44:34.077Z,11.90
2022-12-19T19:47:04.769Z,11.60
2022-12-19T19:49:33.379Z,10.55
2022-12-19T19:52:05.728Z,16.10
2022-12-19T19:54:37.431Z,9.20
2022-12-19T19:57:06.773Z,13.00
2022-12-19T19:59:35.866Z,8.88
2022-12-19T20:02:04.697Z,13.60
2022-12-19T20:04:34.623Z,9.27
2022-12-19T20:07:05.320Z,11.27
2022-12-19T20:09:35.941Z,8.55
2022-12-19T20:12:16.533Z,10.85
2022-12-19T20:14:48.607Z,15.60
2022-12-19T20:17:18.272Z,14.60
2022-12-19T20:19:49.330Z,8.73
2022-12-19T20:22:18.587Z,12.23
2022-12-19T20:24:50.723Z,12.75
2022-12-19T20:27:19.293Z,14.52
2022-12-19T20:29:47.684Z,9.45
2022-12-19T20:32:17.768Z,9.38
2022-12-19T20:34:46.405Z,7.57
2022-12-19T20:37:16.634Z,6.93
2022-12-19T20:39:48.056Z,13.93
2022-12-19T20:42:18.132Z,10.13
2022-12-19T20:44:46.841Z,10.30
2022-12-19T20:47:15.811Z,7.82
2022-12-19T20:49:44.928Z,10.43
2022-12-19T20:52:18.809Z,10.98
2022-12-19T20:54:47.555Z,11.60
2022-12-19T20:57:18.550Z,8.82
2022-12-19T20:59:47.145Z,9.30
2022-12-19T21:02:16.120Z,9.18
2022-12-19T21:04:46.411Z,12.45
2022-12-19T21:07:16.501Z,10.45
2022-12-19T21:09:45.645Z,12.60
2022-12-19T21:12:15.049Z,12.43
2022-12-19T21:14:45.128Z,13.80
2022-12-19T21:17:14.046Z,10.23
2022-12-19T21:19:43.348Z,9.90
2022-12-19T21:22:12.361Z,10.48
2022-12-19T21:24:45.453Z,14.30
2022-12-19T21:27:14.223Z,12.00
2022-12-19T21:29:45.323Z,8.55
2022-12-19T21:32:18.895Z,9.50
2022-12-19T21:34:48.822Z,9.45
2022-12-19T21:37:17.862Z,13.50
2022-12-19T21:39:46.445Z,11.77
2022-12-19T21:42:14.927Z,12.02
2022-12-19T21:44:44.971Z,14.05
2022-12-19T21:47:13.981Z,11.18
2022-12-19T21:49:42.720Z,12.70
2022-12-19T21:52:11.727Z,9.73
2022-12-19T21:54:40.841Z,9.55
2022-12-19T21:57:10.202Z,10.38
2022-12-19T21:59:39.306Z,9.15
2022-12-19T22:02:12.139Z,10.13
2022-12-19T22:04:41.244Z,11.88
2022-12-19T22:07:10.026Z,10.13
2022-12-19T22:09:38.674Z,8.13
2022-12-19T22:12:07.984Z,11.73
2022-12-19T22:14:36.841Z,10.02
2022-12-19T22:17:06.873Z,9.90
2022-12-19T22:19:37.453Z,13.63
2022-12-19T22:22:06.824Z,8.85
2022-12-19T22:24:35.844Z,10.15
2022-12-19T22:27:04.600Z,10.23
2022-12-19T22:29:36.656Z,7.95
2022-12-19T22:32:07.331Z,9.23
2022-12-19T22:34:38.194Z,11.75
2022-12-19T22:37:07.280Z,10.30
2022-12-19T22:39:36.097Z,12.52
2022-12-19T22:42:05.608Z,9.43
2022-12-19T22:44:34.237Z,10.93
2022-12-19T22:47:03.100Z,17.65
2022-12-19T22:49:32.083Z,7.80
2022-12-19T22:52:10.418Z,12.35
2022-12-19T22:54:39.321Z,10.85
2022-12-19T22:57:08.953Z,10.02
2022-12-19T22:59:37.897Z,10.00
2022-12-19T23:02:06.418Z,10.55
2022-12-19T23:04:36.051Z,9.88
2022-12-19T23:07:06.186Z,11.77
2022-12-19T23:09:35.265Z,7.20
2022-12-19T23:12:03.709Z,11.90
2022-12-19T23:14:32.181Z,12.93
2022-12-19T23:17:00.903Z,10.35
2022-12-19T23:19:30.042Z,9.95
2022-12-19T23:21:59.457Z,12.23
2022-12-19T23:24:30.534Z,10.18
2022-12-19T23:27:00.479Z,11.07
2022-12-19T23:29:29.158Z,8.52
2022-12-19T23:31:58.187Z,7.68
2022-12-19T23:34:27.016Z,10.55
2022-12-19T23:37:12.296Z,8.48
2022-12-19T23:39:42.627Z,10.95
2022-12-19T23:42:12.566Z,7.93
2022-12-19T23:44:43.813Z,7.65
2022-12-19T23:47:15.211Z,11.73
2022-12-19T23:49:44.385Z,9.50
2022-12-19T23:52:13.685Z,12.52
2022-12-19T23:54:45.315Z,9.80
2022-12-19T23:57:17.186Z,10.80
2022-12-19T23:59:46.358Z,10.85
